Latest Weather Observations for Curtin

IDW60801

Issued at 2:34 pm WST Saturday 25 February 2017 (issued every 30 minutes, with the page automatically refreshed every 10 minutes)

About weather observations | Map of weather stations | Latest weather observations for WA | Other Formats
Station Details ID: 003080 Name: CURTIN AERO Lat: -17.58 Lon: 123.83 Height: 77.5 m
Data from the previous 72 hours. | See also: Recent months at Curtin
Date/Time
WST
Temp
°C
App
Temp
°C
Dew
Point
°C
Rel
Hum
%
Delta-T
°C
Wind Press
QNH
hPa
Press
MSL
hPa
Rain since
9am
mm
Dir  Spd
km/h
Gust
km/h
Spd
kts
Gust
kts
25/02:30pm 31.8 35.3 23.6 62 5.7 E 11 44 6 24 1006.3 1005.7 -
25/02:00pm 33.7 37.3 23.1 54 7.4 SE 9 13 5 7 1006.4 1005.8 -
25/01:30pm 34.4 38.2 23.4 52 7.7 ESE 9 17 5 9 1006.8 1006.2 -
25/01:00pm 33.9 38.0 23.3 54 7.4 ESE 7 13 4 7 1007.4 1006.8 -
25/12:30pm 33.7 37.3 23.7 56 7.0 ENE 11 17 6 9 1007.8 1007.2 -
25/12:00pm 33.4 36.4 23.4 55 7.0 ENE 13 20 7 11 1008.1 1007.5 -
25/11:30am 32.9 36.0 23.5 57 6.5 ENE 13 20 7 11 1008.5 1007.9 -
25/11:00am 32.9 35.6 23.5 57 6.5 ENE 15 20 8 11 1008.9 1008.3 -
25/10:30am 33.1 35.5 23.7 57 6.6 E 17 22 9 12 1009.3 1008.7 -
25/10:00am 32.3 34.6 23.5 59 6.1 ESE 17 26 9 14 1009.3 1008.7 -
25/09:30am 32.9 34.8 23.5 57 6.5 E 19 32 10 17 1009.3 1008.7 -
25/09:00am 32.2 34.5 23.4 59 6.1 E 17 22 9 12 1009.3 1008.7 -
25/08:30am 31.2 32.6 22.8 61 5.8 E 20 30 11 16 1009.3 1008.7 -
25/08:00am 30.9 32.6 23.0 62 5.4 ESE 19 28 10 15 1009.1 1008.5 -
25/07:30am 30.3 32.0 23.0 65 5.0 ESE 19 28 10 15 1009.0 1008.4 -
25/07:00am 29.9 32.0 23.1 67 4.7 SE 17 28 9 15 1008.6 1008.0 -
25/06:30am 28.8 30.7 22.8 70 4.1 SE 17 22 9 12 1008.3 1007.7 -
25/06:00am 28.1 30.3 22.6 72 3.7 SE 15 17 8 9 1008.5 1007.9 -
25/05:30am 28.0 30.9 22.5 72 3.7 SE 11 15 6 8 1008.1 1007.5 -
25/05:00am 28.8 31.5 22.1 67 4.5 SE 11 15 6 8 1007.7 1007.1 -
25/04:30am 29.5 31.8 22.0 64 5.1 SE 13 19 7 10 1007.8 1007.2 -
25/04:00am 29.8 32.3 21.7 61 5.5 SSE 11 15 6 8 1007.8 1007.2 -
25/03:30am 30.1 32.2 21.7 60 5.7 SE 13 19 7 10 1007.7 1007.1 -
25/03:00am 30.2 32.7 22.4 63 5.3 ESE 13 17 7 9 1007.6 1007.0 -
25/02:30am 30.3 33.6 22.5 63 5.3 SE 9 11 5 6 1007.5 1006.9 -
25/02:00am 30.5 33.9 22.7 63 5.4 SE 9 13 5 7 1007.6 1007.0 -
25/01:30am 30.5 33.9 22.7 63 5.3 SSE 9 11 5 6 1007.8 1007.2 -
25/01:00am 30.6 34.4 22.7 62 5.4 SE 7 9 4 5 1007.9 1007.3 -
25/12:30am 30.8 34.2 22.7 62 5.6 SE 9 13 5 7 1008.2 1007.6 -
25/12:00am 31.0 33.6 22.6 61 5.8 SE 13 20 7 11 1008.2 1007.6 -
 
Date/Time
WST
Temp
°C
App
Temp
°C
Dew
Point
°C
Rel
Hum
%
Delta-T
°C
Wind Press
QNH
hPa
Press
MSL
hPa
Rain since
9am
mm
Dir  Spd
km/h
Gust
km/h
Spd
kts
Gust
kts
24/11:30pm 30.2 33.9 23.9 69 4.4 SSE 11 13 6 7 1008.0 1007.4 -
24/11:00pm 29.2 32.9 23.9 73 3.7 S 11 11 6 6 1007.9 1007.3 -
24/10:30pm 29.8 33.2 23.3 68 4.5 S 11 11 6 6 1008.0 1007.4 -
24/10:00pm 30.0 33.8 23.4 67 4.6 SSW 9 11 5 6 1008.1 1007.5 -
24/09:30pm 30.0 34.3 24.2 71 4.0 SSW 9 11 5 6 1008.2 1007.6 -
24/09:00pm 30.3 35.7 25.1 73 3.7 SSW 6 7 3 4 1008.3 1007.7 -
24/08:30pm 31.1 34.5 22.7 61 5.8 SSW 9 9 5 5 1008.2 1007.6 -
24/08:00pm 31.5 34.6 22.2 57 6.4 S 9 11 5 6 1007.9 1007.3 -
24/07:30pm 32.5 35.4 21.7 53 7.3 S 9 9 5 5 1007.7 1007.1 -
24/07:00pm 33.3 35.7 20.8 48 8.4 SSE 9 11 5 6 1007.5 1006.9 -
24/06:30pm 34.2 36.9 20.6 45 9.1 SE 7 9 4 5 1007.3 1006.7 -
24/06:00pm 35.6 37.2 19.9 39 10.5 SE 11 17 6 9 1007.1 1006.5 -
24/05:30pm 36.9 38.6 20.2 37 11.2 SE 11 17 6 9 1006.9 1006.3 -
24/05:00pm 37.4 38.6 19.8 35 11.8 ESE 13 19 7 10 1006.5 1005.9 -
24/04:30pm 37.8 39.3 19.7 34 12.1 SE 11 15 6 8 1006.4 1005.8 -
24/04:00pm 38.2 39.4 20.0 34 12.3 E 13 20 7 11 1006.3 1005.7 -
24/03:30pm 38.2 38.9 20.5 35 12.0 ESE 17 30 9 16 1006.7 1006.1 -
24/03:00pm 38.5 40.3 21.2 36 11.9 ESE 13 20 7 11 1007.0 1006.4 -
24/02:30pm 38.1 38.6 20.0 35 12.2 ESE 17 26 9 14 1007.1 1006.5 -
24/02:00pm 38.1 38.2 20.4 35 12.0 SSE 20 30 11 16 1007.5 1006.9 -
24/01:30pm 37.7 37.8 19.1 33 12.4 SE 17 26 9 14 1008.1 1007.5 -
24/01:00pm 37.5 38.6 21.2 38 11.2 SE 17 24 9 13 1008.5 1007.9 -
24/12:30pm 37.7 39.7 23.0 43 10.3 SSE 17 26 9 14 1008.9 1008.3 -
24/12:00pm 35.9 38.2 22.1 44 9.5 SSW 13 24 7 13 1009.3 1008.7 -
24/11:30am 35.1 39.7 25.3 57 7.0 NNW 11 15 6 8 1009.7 1009.1 -
24/11:00am 35.3 40.4 24.9 55 7.4 NNW 7 15 4 8 1010.0 1009.4 -
24/10:30am 35.6 39.3 23.9 51 8.2 WSW 11 26 6 14 1009.9 1009.3 -
24/10:00am 34.7 37.9 23.1 51 8.1 WSW 11 15 6 8 1009.9 1009.3 -
24/09:30am 33.8 37.1 23.8 56 7.0 SW 13 17 7 9 1010.4 1009.8 -
24/09:00am 32.8 36.8 23.7 58 6.3 SW 9 15 5 8 1010.8 1010.2 -
24/08:30am 32.1 36.0 24.2 63 5.5 SW 11 19 6 10 1010.9 1010.3 -
24/08:00am 31.0 34.1 22.9 62 5.6 SSW 11 15 6 8 1010.7 1010.1 -
24/07:30am 30.4 34.8 23.8 68 4.6 S 7 13 4 7 1010.7 1010.1 -
24/07:00am 28.9 33.7 24.2 76 3.3 SSE 6 7 3 4 1010.7 1010.1 -
24/06:30am 27.1 32.9 24.6 86 1.7 N 2 7 1 4 1010.5 1009.9 -
24/06:00am 26.0 30.6 24.2 90 1.2 S 7 13 4 7 1010.5 1009.9 -
24/05:30am 25.9 29.1 24.3 91 1.1 S 15 17 8 9 1010.2 1009.6 -
24/05:00am 26.1 29.2 24.1 89 1.4 S 15 19 8 10 1009.9 1009.3 -
24/04:30am 26.3 28.9 24.0 87 1.6 S 17 20 9 11 1009.6 1009.0 -
24/04:00am 26.3 29.9 23.8 86 1.7 S 11 13 6 7 1009.2 1008.6 -
24/03:30am 26.4 29.6 23.7 85 1.9 S 13 17 7 9 1009.0 1008.4 -
24/03:00am 26.3 29.8 23.6 85 1.9 SSW 11 13 6 7 1008.7 1008.1 -
24/02:30am 26.5 30.0 23.6 84 2.0 SSW 11 13 6 7 1008.6 1008.0 -
24/02:00am 26.6 30.4 23.5 83 2.1 SSW 9 11 5 6 1008.7 1008.1 -
24/01:30am 26.6 30.4 23.5 83 2.1 SW 9 11 5 6 1008.9 1008.3 -
24/01:00am 27.0 30.1 23.5 81 2.4 SW 13 15 7 8 1009.2 1008.6 -
24/12:30am 27.2 30.5 23.2 79 2.7 SW 11 15 6 8 1009.5 1008.9 -
24/12:00am 27.6 30.8 23.0 76 3.1 SW 11 13 6 7 1009.8 1009.2 -
 
Date/Time
WST
Temp
°C
App
Temp
°C
Dew
Point
°C
Rel
Hum
%
Delta-T
°C
Wind Press
QNH
hPa
Press
MSL
hPa
Rain since
9am
mm
Dir  Spd
km/h
Gust
km/h
Spd
kts
Gust
kts
23/11:30pm 28.0 30.3 22.7 73 3.6 SW 15 19 8 10 1009.9 1009.3 -
23/11:00pm 28.5 30.4 22.7 71 4.0 SW 17 22 9 12 1010.2 1009.6 -
23/10:30pm 28.7 31.6 23.1 71 3.8 WSW 13 17 7 9 1010.3 1009.7 -
23/10:00pm 29.5 31.0 22.7 67 4.6 SW 19 22 10 12 1010.3 1009.7 -
23/09:30pm 29.3 33.3 23.7 72 3.9 SSW 9 11 5 6 1010.0 1009.4 -
23/09:00pm 29.8 33.4 23.7 70 4.2 SSW 11 11 6 6 1009.8 1009.2 -
23/08:30pm 30.3 33.9 23.7 68 4.6 SSW 11 15 6 8 1009.7 1009.1 -
23/08:00pm 30.6 33.5 21.7 59 6.0 SSE 9 15 5 8 1009.3 1008.7 -
23/07:30pm 29.5 33.7 23.4 69 4.2 SE 7 9 4 5 1008.7 1008.1 -
23/07:00pm 30.1 34.8 24.0 70 4.2 SE 6 7 3 4 1008.2 1007.6 -
23/06:30pm 31.7 35.6 23.0 60 6.0 SE 7 7 4 4 1007.8 1007.2 -
23/06:00pm 35.4 38.4 20.9 42 9.8 SE 6 7 3 4 1008.0 1007.4 -
23/05:30pm 36.5 38.2 19.4 36 11.4 SE 9 11 5 6 1007.7 1007.1 -
23/05:00pm 37.2 39.3 20.9 38 11.1 SE 11 15 6 8 1007.3 1006.7 -
23/04:30pm 37.6 38.6 19.5 34 12.1 SE 13 20 7 11 1007.2 1006.6 -
23/04:00pm 37.6 39.9 21.3 39 11.2 SSE 11 19 6 10 1007.2 1006.6 -
23/03:30pm 37.8 40.4 21.9 40 11.0 SSE 11 20 6 11 1007.2 1006.6 -
23/03:00pm 37.3 39.3 23.0 43 10.0 SSW 17 26 9 14 1007.5 1006.9 -
23/02:30pm 37.7 39.9 23.3 43 10.1 SSE 17 30 9 16 1007.7 1007.1 -
23/02:00pm 36.2 39.2 23.4 47 9.0 SSW 13 22 7 12 1007.8 1007.2 -
23/01:30pm 37.0 40.5 24.2 48 9.1 SSE 13 20 7 11 1008.2 1007.6 -
23/01:00pm 36.2 39.4 24.4 50 8.4 SSW 15 22 8 12 1008.5 1007.9 -
23/12:30pm 35.9 39.8 24.8 52 7.9 SSW 13 20 7 11 1008.9 1008.3 -
23/12:00pm 35.1 38.0 24.4 54 7.6 SW 17 24 9 13 1009.3 1008.7 -
23/11:30am 34.9 38.8 24.8 55 7.2 SSW 13 20 7 11 1009.8 1009.2 -
23/11:00am 33.8 36.7 24.4 58 6.6 SSW 17 30 9 16 1010.1 1009.5 -
23/10:30am 33.4 36.5 24.8 60 6.1 SSW 17 24 9 13 1010.5 1009.9 -
23/10:00am 32.4 35.8 25.2 66 5.1 SSW 17 20 9 11 1010.9 1010.3 -
23/09:30am 31.8 36.0 25.9 71 4.2 SSW 15 20 8 11 1011.2 1010.6 -
23/09:00am 31.4 34.5 24.8 68 4.7 SW 17 22 9 12 1011.6 1011.0 -
23/08:30am 30.8 32.9 23.7 66 4.9 SSW 19 28 10 15 1011.6 1011.0 -
23/08:00am 29.8 33.7 25.5 78 3.0 SW 15 20 8 11 1011.4 1010.8 -
23/07:30am 29.0 32.4 25.2 80 2.7 SW 17 22 9 12 1011.1 1010.5 -
23/07:00am 28.3 33.6 26.5 90 1.3 SW 11 15 6 8 1010.8 1010.2 -
23/06:30am 26.9 32.9 26.9 100 0.0 WSW 9 11 5 6 1010.3 1009.7 -
23/06:00am 26.0 31.4 26.0 100 0.0 SW 9 11 5 6 1010.1 1009.5 -
23/05:30am 25.9 30.8 25.9 100 0.0 SW 11 13 6 7 1009.9 1009.3 -
23/05:00am 26.0 31.4 26.0 100 0.0 WSW 9 11 5 6 1009.5 1008.9 -
23/04:30am 26.1 31.6 26.1 100 0.0 SW 9 11 5 6 1009.5 1008.9 -
23/04:00am 26.2 31.7 26.2 100 0.0 WSW 9 11 5 6 1009.4 1008.8 -
23/03:30am 26.3 32.3 26.3 100 0.0 SW 7 9 4 5 1009.2 1008.6 -
23/03:00am 26.6 31.6 26.6 100 0.0 SW 13 15 7 8 1009.4 1008.8 -
23/02:30am 26.7 31.8 26.7 100 0.0 SW 13 15 7 8 1009.4 1008.8 -
23/02:00am 26.9 31.9 26.6 98 0.2 SW 13 15 7 8 1009.7 1009.1 -
23/01:30am 27.3 32.3 26.6 96 0.5 WSW 13 19 7 10 1009.9 1009.3 -
23/01:00am 27.4 32.5 26.7 96 0.5 WSW 13 15 7 8 1010.2 1009.6 -
23/12:30am 27.4 33.5 27.1 98 0.2 W 9 11 5 6 1010.5 1009.9 -
23/12:00am 27.3 33.8 27.1 99 0.1 NW 7 9 4 5 1010.6 1010.0 -
 
Date/Time
WST
Temp
°C
App
Temp
°C
Dew
Point
°C
Rel
Hum
%
Delta-T
°C
Wind Press
QNH
hPa
Press
MSL
hPa
Rain since
9am
mm
Dir  Spd
km/h
Gust
km/h
Spd
kts
Gust
kts
22/11:30pm 27.2 33.6 26.9 98 0.2 N 7 7 4 4 1011.0 1010.4 -
22/11:00pm 27.4 33.6 26.7 96 0.5 WNW 7 7 4 4 1011.3 1010.7 -
22/10:30pm 27.9 35.4 27.2 96 0.5 WNW 2 7 1 4 1011.8 1011.2 -
22/10:00pm 27.7 34.0 26.5 93 0.9 WNW 6 6 3 3 1011.6 1011.0 -
22/09:30pm 28.4 34.6 26.4 89 1.4 WNW 6 7 3 4 1011.3 1010.7 -
22/09:00pm 28.9 34.6 26.5 87 1.7 WNW 9 13 5 7 1011.4 1010.8 -
22/08:30pm 28.7 34.1 25.5 83 2.3 NNW 7 11 4 6 1010.9 1010.3 -
22/08:00pm 28.8 33.7 24.6 78 2.9 NW 7 9 4 5 1010.6 1010.0 -
22/07:30pm 28.6 33.2 24.2 77 3.1 NW 7 11 4 6 1010.2 1009.6 -
22/07:00pm 28.9 34.7 24.5 77 3.1 SSE 2 7 1 4 1009.5 1008.9 -
22/06:30pm 29.7 34.7 23.9 71 4.0 SSW 4 9 2 5 1009.4 1008.8 -
22/06:00pm 30.4 34.4 23.8 68 4.6 WSW 9 17 5 9 1009.0 1008.4 -
22/05:30pm 30.5 33.8 23.9 68 4.6 N 13 22 7 12 1008.4 1007.8 -
22/05:00pm 31.9 36.0 24.5 65 5.2 NE 11 20 6 11 1008.6 1008.0 -
22/04:30pm 34.0 37.0 22.7 51 7.8 W 11 17 6 9 1008.3 1007.7 -
22/04:00pm 34.5 38.0 23.5 52 7.7 WSW 11 19 6 10 1008.1 1007.5 -
22/03:30pm 34.6 38.1 23.6 52 7.7 SW 11 20 6 11 1008.1 1007.5 -
22/03:00pm 34.4 37.6 23.7 53 7.5 W 13 22 7 12 1008.7 1008.1 -

Other Formats:

Comma delimited format used in spreadsheet applications
http://www.bom.gov.au/fwo/IDW60801/IDW60801.94204.axf

JavaScript Object Notation format (JSON) in row-major order
http://www.bom.gov.au/fwo/IDW60801/IDW60801.94204.json